Time;durP1;ratioP1;P1;durP2;ratioP2;P2;SDS_P1;SDS_P2;PMS_P1;PMS_P2;Temp;Humidity;BMP_temperature;BMP_pressure;BME280_temperature;BME280_humidity;BME280_pressure;Samples;Min_cycle;Max_cycle;Signal;HPM_P1;HPM_P2
2020/12/10 00:01:11;;;;;;;24.63;12.50;;;;;;;1.39;88.60;99789.06;10457014;28;20500;-68
2020/12/10 00:06:12;;;;;;;23.58;12.02;;;;;;;1.28;88.66;99778.19;10457625;28;20536;-68
2020/12/10 00:11:13;;;;;;;24.85;13.07;;;;;;;1.32;88.47;99779.81;10457340;28;20087;-68
2020/12/10 00:16:14;;;;;;;29.52;13.85;;;;;;;1.32;88.17;99764.34;10456106;28;20128;-68
2020/12/10 00:21:20;;;;;;;25.38;12.82;;;;;;;1.40;89.23;99764.97;10456628;28;20053;-68
2020/12/10 00:26:21;;;;;;;26.05;13.65;;;;;;;1.37;88.75;99752.19;10453345;28;20647;-68
2020/12/10 00:31:21;;;;;;;29.73;14.15;;;;;;;1.37;88.97;99747.03;10455034;28;20053;-68
2020/12/10 00:36:23;;;;;;;27.40;13.38;;;;;;;1.36;88.20;99744.47;10455214;28;20485;-68
2020/12/10 00:41:23;;;;;;;25.73;12.70;;;;;;;1.36;88.45;99731.59;10456218;28;20051;-68
2020/12/10 00:46:25;;;;;;;25.45;13.07;;;;;;;1.38;89.03;99727.22;10455959;28;20045;-68
2020/12/10 00:51:26;;;;;;;29.42;13.85;;;;;;;1.31;88.89;99725.72;10455099;28;20147;-68
2020/12/10 00:56:34;;;;;;;25.25;12.75;;;;;;;1.38;90.08;99720.31;10455118;28;20099;-68
2020/12/10 01:01:35;;;;;;;28.35;13.60;;;;;;;1.34;89.53;99731.63;10453536;28;20479;-68
2020/12/10 01:06:36;;;;;;;28.92;13.38;;;;;;;1.37;89.84;99728.97;10453860;28;20148;-67
2020/12/10 01:11:37;;;;;;;27.20;13.52;;;;;;;1.38;89.47;99728.06;10453840;28;20045;-67
2020/12/10 01:16:38;;;;;;;27.75;13.30;;;;;;;1.41;88.81;99724.56;10454430;28;20096;-68
2020/12/10 01:21:40;;;;;;;27.83;13.63;;;;;;;1.35;89.78;99717.84;10436342;28;20060;-68
2020/12/10 01:26:43;;;;;;;27.05;13.63;;;;;;;1.43;89.12;99709.88;10453544;28;20475;-68
2020/12/10 01:31:47;;;;;;;28.23;14.35;;;;;;;1.45;89.50;99719.28;10452810;28;20049;-68
2020/12/10 01:36:48;;;;;;;28.48;14.32;;;;;;;1.48;89.80;99705.44;10453388;28;20049;-68
2020/12/10 01:41:49;;;;;;;28.20;13.45;;;;;;;1.45;89.03;99703.81;10453518;28;20048;-68
2020/12/10 01:46:51;;;;;;;28.15;14.50;;;;;;;1.45;89.36;99698.66;10453257;28;20053;-68
2020/12/10 01:51:53;;;;;;;29.17;14.52;;;;;;;1.45;89.39;99695.22;10452663;28;20059;-68
2020/12/10 01:56:55;;;;;;;25.70;13.40;;;;;;;1.46;88.67;99690.03;10452734;28;20493;-68
2020/12/10 02:01:56;;;;;;;30.50;15.02;;;;;;;1.36;89.89;99698.91;10451326;28;20044;-68
2020/12/10 02:06:57;;;;;;;30.38;14.02;;;;;;;1.18;90.22;99679.66;10452320;28;20103;-68
2020/12/10 02:11:59;;;;;;;31.30;15.60;;;;;;;1.38;89.45;99686.81;10452068;28;20045;-68
2020/12/10 02:17:02;;;;;;;27.85;12.90;;;;;;;1.25;90.55;99680.31;10452013;28;20448;-68
2020/12/10 02:22:03;;;;;;;28.90;14.43;;;;;;;1.18;90.75;99678.78;10451972;28;20094;-68
2020/12/10 02:27:04;;;;;;;28.25;13.75;;;;;;;1.17;91.08;99685.69;10452218;28;20106;-68
2020/12/10 02:32:05;;;;;;;26.90;13.77;;;;;;;1.14;90.80;99669.47;10450390;28;20110;-68
2020/12/10 02:37:06;;;;;;;29.08;13.30;;;;;;;1.15;90.80;99661.69;10451416;28;20052;-68
2020/12/10 02:42:07;;;;;;;31.88;15.10;;;;;;;1.16;90.86;99653.09;10451146;28;20045;-70
2020/12/10 02:47:08;;;;;;;30.20;14.60;;;;;;;1.27;90.59;99640.72;10452187;28;20053;-68
2020/12/10 02:52:09;;;;;;;31.08;14.45;;;;;;;1.33;91.50;99626.81;10450860;28;20049;-69
2020/12/10 02:57:10;;;;;;;32.10;14.52;;;;;;;1.39;91.32;99631.78;10454546;28;20048;-68
2020/12/10 03:02:11;;;;;;;30.88;15.48;;;;;;;1.44;89.44;99622.19;10458447;28;20052;-68
2020/12/10 03:07:12;;;;;;;30.13;15.13;;;;;;;1.39;90.13;99616.31;10441265;28;20059;-68
2020/12/10 03:12:13;;;;;;;30.98;15.35;;;;;;;1.36;89.75;99619.00;10458859;28;20489;-68
2020/12/10 03:17:14;;;;;;;34.15;16.52;;;;;;;1.39;89.62;99615.47;10458691;28;20440;-68
2020/12/10 03:22:15;;;;;;;32.85;16.15;;;;;;;1.36;89.95;99610.44;10458562;28;20103;-68
2020/12/10 03:27:16;;;;;;;33.25;15.20;;;;;;;1.34;89.68;99599.31;10454687;28;20041;-67
2020/12/10 03:32:17;;;;;;;33.42;16.92;;;;;;;1.22;90.13;99603.06;10456768;28;20493;-67
2020/12/10 03:37:18;;;;;;;31.80;15.85;;;;;;;1.18;89.78;99596.31;10457811;28;20052;-67
2020/12/10 03:42:19;;;;;;;35.65;16.85;;;;;;;1.22;90.84;99585.03;10457239;28;20088;-67
2020/12/10 03:47:20;;;;;;;30.23;14.95;;;;;;;1.16;92.13;99582.66;10458429;28;20434;-68
2020/12/10 03:52:21;;;;;;;33.33;15.48;;;;;;;1.25;91.55;99572.06;10457561;28;20156;-68
2020/12/10 03:57:22;;;;;;;34.25;16.05;;;;;;;1.25;90.30;99567.78;10456958;28;20052;-68
2020/12/10 04:02:23;;;;;;;30.70;15.75;;;;;;;1.35;90.07;99567.47;10456227;28;20444;-67
2020/12/10 04:07:24;;;;;;;28.45;14.75;;;;;;;1.27;90.77;99565.13;10456003;28;20102;-68
2020/12/10 04:12:25;;;;;;;30.90;16.00;;;;;;;1.20;90.88;99551.59;10456742;28;20053;-67
2020/12/10 04:17:27;;;;;;;35.30;16.08;;;;;;;1.20;91.91;99545.59;10456281;28;20124;-68
2020/12/10 04:22:28;;;;;;;38.72;19.08;;;;;;;1.21;91.92;99544.72;10455761;28;20056;-67
2020/12/10 04:27:29;;;;;;;38.25;18.35;;;;;;;1.27;90.20;99534.19;10452108;28;20095;-68
2020/12/10 04:32:30;;;;;;;35.42;16.90;;;;;;;1.26;91.16;99541.09;10455068;28;20057;-67
2020/12/10 04:37:31;;;;;;;38.85;18.48;;;;;;;1.31;89.19;99547.84;10455916;28;20051;-67
2020/12/10 04:42:32;;;;;;;35.53;17.23;;;;;;;1.30;89.31;99549.59;10455525;28;20060;-68
2020/12/10 04:47:34;;;;;;;34.47;16.77;;;;;;;1.27;89.85;99536.78;10455742;28;20056;-68
2020/12/10 04:52:35;;;;;;;34.45;16.98;;;;;;;1.21;90.77;99539.56;10454936;28;20061;-68
2020/12/10 04:57:39;;;;;;;37.58;17.73;;;;;;;1.22;90.66;99530.91;10454640;28;20529;-68
2020/12/10 05:02:44;;;;;;;33.85;16.48;;;;;;;1.24;90.28;99521.41;10454094;28;20044;-68
2020/12/10 05:07:45;;;;;;;35.33;16.25;;;;;;;1.27;90.50;99513.56;10454300;28;20044;-68
2020/12/10 05:12:47;;;;;;;36.75;17.38;;;;;;;1.29;91.18;99516.97;10454800;28;20049;-68
2020/12/10 05:17:48;;;;;;;35.88;18.42;;;;;;;1.33;90.79;99505.66;10453875;28;20041;-68
2020/12/10 05:22:49;;;;;;;41.08;18.55;;;;;;;1.32;89.76;99503.16;10454058;28;20053;-68
2020/12/10 05:28:00;;;;;;;36.38;17.80;;;;;;;1.27;90.10;99498.09;10454416;28;20057;-68
2020/12/10 05:33:15;;;;;;;36.20;17.42;;;;;;;1.30;89.33;99490.28;10453424;28;20060;-68
2020/12/10 05:38:16;;;;;;;38.95;18.50;;;;;;;1.33;89.42;99497.06;10454105;28;20052;-68
2020/12/10 05:43:22;;;;;;;32.80;16.90;;;;;;;1.27;90.10;99498.09;10453127;28;20049;-68
2020/12/10 05:48:24;;;;;;;37.08;17.88;;;;;;;1.28;91.47;99504.97;10453726;28;20118;-68
2020/12/10 05:53:29;;;;;;;34.65;16.42;;;;;;;1.28;92.03;99499.81;10453270;28;20465;-68
2020/12/10 05:58:30;;;;;;;34.05;15.85;;;;;;;1.29;92.01;99496.34;10453136;28;20048;-67
2020/12/10 06:03:31;;;;;;;34.45;16.52;;;;;;;1.31;91.02;99502.31;10452552;28;20077;-68
2020/12/10 06:08:38;;;;;;;37.78;17.00;;;;;;;1.41;90.78;99495.13;10455081;28;20048;-68
2020/12/10 06:13:39;;;;;;;34.53;17.47;;;;;;;1.38;91.30;99503.78;10453643;28;20049;-68
2020/12/10 06:19:16;;;;;;;52.00;27.10;;;;;;;1.36;91.81;99500.44;10451596;28;20049;-67
2020/12/10 06:24:26;;;;;;;34.10;15.77;;;;;;;1.39;91.66;99513.19;10447695;28;20049;-66
2020/12/10 06:29:29;;;;;;;37.63;15.93;;;;;;;1.39;92.24;99507.19;10444491;28;20052;-67
2020/12/10 06:34:38;;;;;;;33.15;15.65;;;;;;;1.39;91.32;99522.66;10450435;28;20067;-66
2020/12/10 06:39:39;;;;;;;32.53;15.75;;;;;;;1.33;90.86;99517.69;10451227;28;20045;-66
2020/12/10 06:44:40;;;;;;;30.75;15.45;;;;;;;1.41;90.71;99519.16;10451446;28;20061;-66
2020/12/10 06:49:41;;;;;;;37.78;17.55;;;;;;;1.47;90.69;99516.41;10451386;28;20118;-67
2020/12/10 06:55:07;;;;;;;38.50;15.80;;;;;;;1.31;91.08;99504.88;10447098;28;20053;-66
2020/12/10 07:00:08;;;;;;;34.78;16.77;;;;;;;1.33;90.47;99515.97;10449493;28;20049;-66
2020/12/10 07:05:30;;;;;;;32.25;16.85;;;;;;;1.34;89.53;99515.09;10442194;28;20052;-66
2020/12/10 07:10:43;;;;;;;36.95;17.40;;;;;;;1.36;89.23;99522.78;10451139;28;20049;-66
2020/12/10 07:15:48;;;;;;;38.75;17.90;;;;;;;1.33;89.13;99521.13;10451132;28;20049;-66
2020/12/10 07:20:49;;;;;;;34.30;16.67;;;;;;;1.33;89.39;99510.81;10450793;28;20428;-66
2020/12/10 07:25:50;;;;;;;37.83;18.85;;;;;;;1.28;89.57;99504.97;10446677;28;20048;-68
2020/12/10 07:30:50;;;;;;;37.65;18.83;;;;;;;1.39;88.81;99512.34;10451176;28;20055;-68
2020/12/10 07:35:51;;;;;;;38.03;18.38;;;;;;;1.30;89.42;99503.19;10451647;28;20053;-66
2020/12/10 07:40:54;;;;;;;40.13;19.45;;;;;;;1.26;89.36;99509.34;10451310;28;20057;-66
2020/12/10 07:45:55;;;;;;;36.95;17.73;;;;;;;1.35;89.37;99501.31;10458176;28;20057;-67
2020/12/10 07:50:56;;;;;;;37.97;18.17;;;;;;;1.43;88.15;99509.63;10457516;28;20041;-67
2020/12/10 07:55:59;;;;;;;36.42;17.95;;;;;;;1.41;88.04;99506.28;10453368;28;20055;-66
2020/12/10 08:01:07;;;;;;;33.97;16.20;;;;;;;1.39;88.32;99508.03;10456243;28;20044;-66
2020/12/10 08:06:09;;;;;;;34.70;18.20;;;;;;;1.56;88.17;99521.25;10457379;28;20091;-66
2020/12/10 08:11:16;;;;;;;41.67;18.48;;;;;;;1.53;88.27;99511.03;10456775;28;20080;-66
2020/12/10 08:16:17;;;;;;;35.40;16.92;;;;;;;1.59;88.11;99521.16;10457133;28;20049;-66
2020/12/10 08:21:32;;;;;;;33.50;17.10;;;;;;;1.57;89.57;99528.13;10457657;28;20088;-66
2020/12/10 08:26:33;;;;;;;35.58;16.75;;;;;;;1.73;88.71;99527.63;10456910;28;20079;-66
2020/12/10 08:31:34;;;;;;;29.40;15.77;;;;;;;1.76;87.23;99535.25;10455583;28;20063;-66
2020/12/10 08:36:35;;;;;;;30.98;15.30;;;;;;;1.86;83.32;99527.16;10455950;28;20045;-66
2020/12/10 08:41:37;;;;;;;27.80;14.00;;;;;;;1.91;84.21;99535.59;10456009;28;20080;-66
2020/12/10 08:46:38;;;;;;;31.10;14.25;;;;;;;1.86;83.73;99523.72;10455738;28;20086;-66
2020/12/10 08:51:40;;;;;;;37.38;16.38;;;;;;;1.87;84.04;99521.13;10455306;28;20052;-66
2020/12/10 08:56:42;;;;;;;24.75;11.45;;;;;;;1.78;81.90;99520.56;10450140;28;20503;-66
2020/12/10 09:01:52;;;;;;;24.27;13.63;;;;;;;1.99;82.86;99514.69;10453932;28;20106;-67
2020/12/10 09:06:53;;;;;;;24.98;12.05;;;;;;;1.97;80.68;99519.06;10454502;28;20049;-67
2020/12/10 09:11:54;;;;;;;18.45;8.98;;;;;;;2.02;80.42;99520.59;10454419;28;20044;-67
2020/12/10 09:16:55;;;;;;;26.52;12.07;;;;;;;2.04;80.42;99523.09;10454464;28;20048;-67
2020/12/10 09:21:56;;;;;;;33.45;12.75;;;;;;;2.25;79.80;99522.38;10453944;28;20049;-66
2020/12/10 09:26:57;;;;;;;21.95;9.18;;;;;;;2.22;77.72;99521.66;10456277;28;20488;-68
2020/12/10 09:32:00;;;;;;;15.88;8.00;;;;;;;2.36;78.20;99520.28;10453938;28;20045;-67
2020/12/10 09:37:01;;;;;;;31.63;10.75;;;;;;;2.36;77.74;99520.28;10455912;28;20076;-67
2020/12/10 09:42:03;;;;;;;22.15;8.05;;;;;;;2.20;76.83;99526.00;10453617;28;20045;-67
2020/12/10 09:47:09;;;;;;;21.63;9.48;;;;;;;2.12;78.55;99519.41;10453259;28;20045;-67
2020/12/10 09:52:12;;;;;;;18.15;8.85;;;;;;;2.31;80.30;99517.00;10452585;28;20053;-68
2020/12/10 10:02:21;;;;;;;20.45;9.77;;;;;;;2.32;77.99;99516.13;10452174;28;20048;-68
2020/12/10 10:07:22;;;;;;;19.40;9.60;;;;;;;2.32;78.69;99518.72;10452615;28;20124;-68
2020/12/10 10:12:23;;;;;;;21.73;10.80;;;;;;;2.36;77.99;99520.28;10451639;28;20056;-68
2020/12/10 10:17:24;;;;;;;22.85;11.30;;;;;;;2.21;78.62;99514.81;10452468;28;20041;-69
2020/12/10 10:22:26;;;;;;;19.80;9.73;;;;;;;2.12;79.04;99505.66;10451971;28;20049;-69
2020/12/10 10:27:28;;;;;;;30.83;13.00;;;;;;;2.17;78.97;99506.34;10451306;28;20122;-68
2020/12/10 10:32:29;;;;;;;23.52;11.43;;;;;;;2.24;78.94;99505.19;10451022;28;20128;-68
2020/12/10 10:37:30;;;;;;;25.50;12.48;;;;;;;2.30;79.37;99492.09;10452157;28;20103;-68
2020/12/10 10:42:31;;;;;;;39.13;13.50;;;;;;;2.26;78.98;99490.50;10451840;28;20052;-68
2020/12/10 10:47:32;;;;;;;27.05;12.07;;;;;;;2.23;79.69;99487.22;10451620;28;20049;-68
2020/12/10 10:52:33;;;;;;;20.88;11.48;;;;;;;2.30;79.70;99498.97;10451567;28;20051;-68
2020/12/10 10:57:34;;;;;;;20.50;11.10;;;;;;;2.36;79.11;99488.44;10451240;28;20469;-68
2020/12/10 11:02:35;;;;;;;19.02;10.60;;;;;;;2.31;79.70;99488.63;10432442;28;20044;-68
2020/12/10 11:07:36;;;;;;;22.45;10.75;;;;;;;2.38;79.97;99482.34;10448077;28;20462;-68
2020/12/10 11:12:37;;;;;;;29.35;14.85;;;;;;;2.49;80.30;99489.69;10433468;28;20049;-68
2020/12/10 11:17:38;;;;;;;24.45;12.60;;;;;;;2.35;79.53;99492.75;10453696;28;20477;-68
2020/12/10 11:22:39;;;;;;;24.52;13.48;;;;;;;2.38;81.65;99484.09;10458921;28;20053;-68
2020/12/10 11:27:40;;;;;;;23.27;11.52;;;;;;;2.40;80.35;99490.88;10441076;28;20080;-68
2020/12/10 11:32:41;;;;;;;27.52;12.43;;;;;;;2.37;79.48;99485.81;10457897;28;20091;-69
2020/12/10 11:37:43;;;;;;;25.58;13.15;;;;;;;2.48;80.06;99483.69;10458723;28;20041;-68
2020/12/10 11:42:44;;;;;;;26.67;13.23;;;;;;;2.45;79.53;99482.94;10458557;28;20056;-68
2020/12/10 11:47:46;;;;;;;26.48;13.43;;;;;;;2.38;79.29;99481.50;10457886;28;20041;-70
2020/12/10 11:52:51;;;;;;;27.88;13.57;;;;;;;2.40;79.71;99480.53;10458319;28;20098;-68
2020/12/10 11:57:54;;;;;;;26.95;13.25;;;;;;;2.39;81.88;99478.84;10457196;28;20493;-68
2020/12/10 12:02:55;;;;;;;27.25;13.13;;;;;;;2.28;80.15;99475.81;10456827;28;20045;-68
2020/12/10 12:07:56;;;;;;;25.30;12.82;;;;;;;2.40;79.86;99470.19;10457481;28;20053;-69
2020/12/10 12:12:58;;;;;;;28.23;13.88;;;;;;;2.29;80.27;99467.16;10456754;28;20055;-69
2020/12/10 12:17:59;;;;;;;28.70;14.55;;;;;;;2.38;81.66;99466.00;10457076;28;20068;-68
2020/12/10 12:22:59;;;;;;;27.90;14.23;;;;;;;2.36;80.64;99463.47;10456840;28;20068;-68
2020/12/10 12:28:00;;;;;;;27.35;14.30;;;;;;;2.52;81.37;99456.84;10456283;28;20424;-68
2020/12/10 12:33:02;;;;;;;28.75;14.30;;;;;;;2.35;81.00;99461.78;10455497;28;20045;-68
2020/12/10 12:38:03;;;;;;;29.05;14.60;;;;;;;2.25;80.82;99457.84;10455726;28;20118;-68
2020/12/10 12:43:05;;;;;;;26.35;14.27;;;;;;;2.21;81.62;99453.69;10456209;28;20098;-68
2020/12/10 12:48:06;;;;;;;28.52;15.32;;;;;;;2.34;80.81;99448.91;10450758;28;20086;-67
2020/12/10 12:53:07;;;;;;;29.05;14.15;;;;;;;2.37;80.62;99448.81;10454838;28;20060;-68
2020/12/10 12:58:08;;;;;;;25.60;13.48;;;;;;;2.44;80.16;99445.09;10455134;28;20083;-67
2020/12/10 13:03:08;;;;;;;28.75;14.25;;;;;;;2.57;79.47;99443.78;10453533;28;20467;-67
2020/12/10 13:08:10;;;;;;;26.65;13.05;;;;;;;2.40;80.42;99444.38;10454293;28;20056;-67
2020/12/10 13:13:10;;;;;;;26.90;13.65;;;;;;;2.49;81.38;99435.44;10454533;28;20859;-67
2020/12/10 13:18:12;;;;;;;26.75;13.75;;;;;;;2.54;80.69;99441.28;10454800;28;20053;-67
2020/12/10 13:23:13;;;;;;;27.20;13.40;;;;;;;2.65;81.61;99440.88;10454550;28;20488;-67
2020/12/10 13:28:17;;;;;;;26.00;13.30;;;;;;;2.59;80.43;99439.41;10454027;28;20048;-67
2020/12/10 13:33:17;;;;;;;29.50;14.25;;;;;;;2.62;79.80;99443.59;10452637;28;20103;-67
2020/12/10 13:38:18;;;;;;;26.20;13.50;;;;;;;2.59;80.67;99435.06;10453646;28;20057;-67
2020/12/10 13:43:19;;;;;;;24.10;11.57;;;;;;;2.65;79.75;99433.13;10452908;28;20045;-67
2020/12/10 13:48:21;;;;;;;26.52;13.88;;;;;;;2.63;80.89;99430.63;10453498;28;20057;-67
2020/12/10 13:53:22;;;;;;;27.92;13.77;;;;;;;2.61;79.99;99429.00;10452489;28;20106;-68
2020/12/10 13:58:23;;;;;;;28.73;13.95;;;;;;;2.57;81.71;99438.59;10452768;28;20128;-67
2020/12/10 14:03:24;;;;;;;26.83;13.93;;;;;;;2.53;80.43;99435.31;10451358;28;20052;-67
2020/12/10 14:08:43;;;;;;;30.88;14.52;;;;;;;2.53;81.36;99424.97;10451737;28;20493;-67
2020/12/10 14:13:44;;;;;;;28.65;13.93;;;;;;;2.52;80.52;99428.44;10451646;28;20086;-67
2020/12/10 14:18:45;;;;;;;28.27;13.48;;;;;;;2.43;80.68;99418.47;10451939;28;20049;-67
2020/12/10 14:23:46;;;;;;;29.42;13.55;;;;;;;2.55;80.94;99430.91;10451684;28;20045;-67
2020/12/10 14:28:47;;;;;;;27.33;13.80;;;;;;;2.47;82.52;99427.78;10451431;28;20044;-67
2020/12/10 14:33:48;;;;;;;23.75;12.70;;;;;;;2.43;82.16;99431.38;10450564;28;20057;-67
2020/12/10 14:38:49;;;;;;;23.27;12.80;;;;;;;2.45;82.57;99432.16;10451284;28;20053;-67
2020/12/10 14:43:50;;;;;;;28.08;13.35;;;;;;;2.40;82.98;99441.81;10451146;28;20049;-67
2020/12/10 14:48:51;;;;;;;24.30;12.65;;;;;;;2.34;83.57;99446.34;10451320;28;20496;-67
2020/12/10 14:53:52;;;;;;;26.40;13.23;;;;;;;2.35;82.98;99442.88;10455634;28;20068;-67
2020/12/10 14:58:53;;;;;;;26.63;12.80;;;;;;;2.38;83.42;99443.63;10459332;28;20048;-66
2020/12/10 15:03:54;;;;;;;29.08;13.88;;;;;;;2.36;83.04;99442.81;10457811;28;20057;-67
2020/12/10 15:08:55;;;;;;;21.85;11.90;;;;;;;2.34;83.39;99452.34;10458499;28;20558;-67
2020/12/10 15:13:56;;;;;;;29.30;14.27;;;;;;;2.30;82.66;99447.34;10458595;28;20052;-67
2020/12/10 15:18:57;;;;;;;27.30;13.32;;;;;;;2.28;83.24;99438.84;10458886;28;20045;-67
2020/12/10 15:23:58;;;;;;;25.48;14.07;;;;;;;2.35;83.08;99429.94;10458922;28;20121;-67
2020/12/10 15:28:59;;;;;;;28.98;14.75;;;;;;;2.32;82.57;99430.06;10458304;28;20136;-67
2020/12/10 15:33:59;;;;;;;25.48;13.05;;;;;;;2.24;82.92;99434.66;10457355;28;20045;-67
2020/12/10 15:39:00;;;;;;;24.90;13.05;;;;;;;2.25;83.16;99441.50;10457799;28;20519;-67
2020/12/10 15:44:01;;;;;;;27.70;14.85;;;;;;;2.34;82.77;99443.75;10458027;28;20459;-67
2020/12/10 15:49:02;;;;;;;24.85;13.20;;;;;;;2.31;82.78;99443.88;10457556;28;20048;-67
2020/12/10 15:54:03;;;;;;;29.40;14.30;;;;;;;2.19;84.22;99449.47;10457102;28;20088;-67
2020/12/10 15:59:04;;;;;;;27.30;13.80;;;;;;;2.22;84.75;99452.81;10457283;28;20051;-67
2020/12/10 16:04:05;;;;;;;25.30;12.45;;;;;;;2.16;85.98;99450.44;10455651;28;20488;-66
2020/12/10 16:09:06;;;;;;;22.70;11.43;;;;;;;2.21;85.00;99452.84;10456368;28;20080;-67
2020/12/10 16:14:07;;;;;;;24.10;12.00;;;;;;;2.22;84.98;99454.53;10456114;28;20060;-67
2020/12/10 16:19:09;;;;;;;24.55;12.88;;;;;;;2.20;85.21;99451.16;10456164;28;20057;-67
2020/12/10 16:24:10;;;;;;;24.02;12.82;;;;;;;2.13;85.81;99456.53;10456127;28;20045;-67
2020/12/10 16:29:11;;;;;;;27.38;12.82;;;;;;;2.11;86.17;99452.34;10455565;28;20053;-67
2020/12/10 16:34:12;;;;;;;24.27;12.50;;;;;;;2.07;86.00;99456.78;10454636;28;20431;-67
2020/12/10 16:39:13;;;;;;;25.83;13.43;;;;;;;2.05;86.79;99458.53;10455461;28;20041;-67
2020/12/10 16:44:14;;;;;;;25.05;12.30;;;;;;;2.11;86.09;99457.50;10455213;28;20053;-67
2020/12/10 16:49:17;;;;;;;26.30;13.35;;;;;;;2.07;86.41;99451.59;10455185;28;20136;-67
2020/12/10 16:54:17;;;;;;;23.75;13.02;;;;;;;2.05;86.40;99453.38;10454643;28;20452;-67
2020/12/10 16:59:19;;;;;;;26.90;13.32;;;;;;;2.09;86.70;99454.13;10454360;28;20405;-67
2020/12/10 17:04:20;;;;;;;22.63;12.05;;;;;;;2.03;87.78;99450.00;10453370;28;20167;-67
2020/12/10 17:09:21;;;;;;;22.42;11.07;;;;;;;1.96;88.03;99440.81;10450172;28;20110;-67
2020/12/10 17:14:25;;;;;;;22.20;11.50;;;;;;;2.01;87.82;99448.38;10453154;28;20049;-68
2020/12/10 17:19:26;;;;;;;24.48;12.13;;;;;;;1.88;88.47;99457.47;10454146;28;20048;-69
2020/12/10 17:24:27;;;;;;;28.52;13.27;;;;;;;1.89;88.98;99453.97;10454500;28;20053;-70
2020/12/10 17:29:28;;;;;;;25.15;13.55;;;;;;;1.93;88.72;99463.31;10453557;28;20467;-69
2020/12/10 17:34:29;;;;;;;27.10;13.38;;;;;;;1.86;89.23;99477.28;10452772;28;20128;-69
2020/12/10 17:39:30;;;;;;;28.35;15.73;;;;;;;1.88;88.19;99481.50;10454057;28;20048;-70
2020/12/10 17:44:31;;;;;;;30.08;15.48;;;;;;;1.92;89.10;99482.25;10452731;28;20064;-69
2020/12/10 17:49:32;;;;;;;32.25;16.60;;;;;;;1.94;88.83;99485.59;10452986;28;20045;-68
2020/12/10 17:54:34;;;;;;;29.70;16.05;;;;;;;1.94;88.48;99483.88;10451433;28;20401;-69
2020/12/10 17:59:35;;;;;;;32.25;16.33;;;;;;;1.87;88.49;99490.16;10452952;28;20094;-69
2020/12/10 18:04:36;;;;;;;32.10;16.50;;;;;;;1.91;88.07;99483.16;10451536;28;20044;-68
2020/12/10 18:09:37;;;;;;;26.55;14.45;;;;;;;1.88;88.04;99483.25;10452209;28;20045;-69
2020/12/10 18:14:38;;;;;;;30.10;15.82;;;;;;;1.84;88.24;99484.22;10452330;28;20045;-68
2020/12/10 18:19:39;;;;;;;33.08;16.73;;;;;;;1.91;88.83;99485.72;10451775;28;20377;-68
2020/12/10 18:24:39;;;;;;;31.25;17.13;;;;;;;1.90;88.91;99484.88;10452083;28;20441;-69
2020/12/10 18:29:49;;;;;;;28.17;16.80;;;;;;;1.89;89.69;99497.81;10451645;28;20397;-69
2020/12/10 18:34:50;;;;;;;38.67;19.27;;;;;;;1.87;88.39;99490.16;10450980;28;20049;-68
2020/12/10 18:39:51;;;;;;;54.35;24.27;;;;;;;1.87;88.73;99487.56;10451479;28;20489;-68
2020/12/10 18:44:52;;;;;;;49.70;23.35;;;;;;;1.92;89.40;99480.53;10451507;28;20048;-69
2020/12/10 18:49:53;;;;;;;34.28;16.95;;;;;;;1.90;88.04;99484.88;10451316;28;20037;-69
2020/12/10 18:54:54;;;;;;;32.72;17.38;;;;;;;1.92;88.75;99474.50;10451286;28;20412;-68
2020/12/10 18:59:55;;;;;;;30.17;17.02;;;;;;;1.92;88.67;99471.94;10451290;28;20041;-69
2020/12/10 19:04:56;;;;;;;27.85;15.52;;;;;;;1.94;87.74;99483.03;10450279;28;20124;-69
2020/12/10 19:09:57;;;;;;;40.67;21.90;;;;;;;1.96;87.85;99470.94;10450682;28;20041;-69
2020/12/10 19:14:58;;;;;;;40.20;20.73;;;;;;;2.01;88.73;99463.88;10447823;28;20053;-68
2020/12/10 19:20:02;;;;;;;43.20;24.33;;;;;;;2.01;87.28;99471.63;10450566;28;20041;-70
2020/12/10 19:25:02;;;;;;;40.85;23.60;;;;;;;2.04;88.03;99466.34;10450231;28;20469;-69
2020/12/10 19:30:04;;;;;;;48.38;27.50;;;;;;;2.04;88.28;99450.84;10451103;28;20047;-69
2020/12/10 19:35:06;;;;;;;57.38;30.73;;;;;;;2.09;88.40;99461.84;10452240;28;20053;-69
2020/12/10 19:40:09;;;;;;;35.55;19.95;;;;;;;2.01;88.01;99463.88;10457550;28;20045;-69
2020/12/10 19:45:11;;;;;;;40.60;21.70;;;;;;;2.07;88.79;99468.81;10458467;28;20090;-69
2020/12/10 19:50:12;;;;;;;35.47;18.88;;;;;;;2.00;89.02;99475.94;10458144;28;20048;-68
2020/12/10 19:55:14;;;;;;;41.80;21.73;;;;;;;2.07;88.28;99476.56;10439092;28;20080;-69
2020/12/10 20:00:15;;;;;;;38.65;20.80;;;;;;;2.02;88.77;99470.72;10456833;28;20517;-69
2020/12/10 20:05:16;;;;;;;39.05;20.35;;;;;;;2.04;89.75;99474.06;10460037;28;20519;-69
2020/12/10 20:10:17;;;;;;;40.20;20.35;;;;;;;2.07;89.99;99477.41;10459732;28;20056;-68
2020/12/10 20:15:19;;;;;;;40.65;20.27;;;;;;;2.05;90.19;99474.03;10459017;28;20049;-68
2020/12/10 20:20:20;;;;;;;46.33;23.92;;;;;;;2.04;90.09;99482.66;10456956;28;20045;-68
2020/12/10 20:25:33;;;;;;;37.05;20.17;;;;;;;2.04;88.99;99481.81;10456679;28;20059;-68
2020/12/10 20:30:34;;;;;;;28.48;15.80;;;;;;;2.12;85.45;99479.84;10426754;28;20109;-68
2020/12/10 20:35:35;;;;;;;26.25;15.20;;;;;;;2.17;86.38;99488.25;10456578;28;20132;-68
2020/12/10 20:40:36;;;;;;;27.15;16.17;;;;;;;2.20;86.07;99488.13;10455992;28;20053;-69
2020/12/10 20:45:40;;;;;;;30.30;17.35;;;;;;;2.22;86.92;99495.84;10455818;28;20390;-69
2020/12/10 20:50:41;;;;;;;33.15;17.40;;;;;;;2.18;86.52;99495.13;10455739;28;20041;-69
2020/12/10 20:55:42;;;;;;;32.65;18.38;;;;;;;2.18;86.77;99500.28;10455337;28;20044;-69
2020/12/10 21:00:43;;;;;;;26.75;14.13;;;;;;;2.14;86.94;99496.94;10454543;28;20045;-68
2020/12/10 21:05:43;;;;;;;23.42;13.52;;;;;;;2.15;87.66;99498.63;10455213;28;20053;-68
2020/12/10 21:10:44;;;;;;;28.00;16.48;;;;;;;2.15;87.39;99490.03;10455061;28;20041;-69
2020/12/10 21:15:47;;;;;;;30.48;17.05;;;;;;;2.21;87.31;99479.50;10414033;28;20049;-69
2020/12/10 21:20:49;;;;;;;29.60;16.17;;;;;;;2.24;86.54;99494.88;10412863;28;20083;-69
2020/12/10 21:25:50;;;;;;;24.58;14.52;;;;;;;2.22;83.84;99491.53;10435558;28;20045;-68
2020/12/10 21:30:51;;;;;;;23.38;14.25;;;;;;;2.30;84.06;99486.06;10435690;28;20514;-69
2020/12/10 21:35:52;;;;;;;19.83;11.90;;;;;;;2.29;82.80;99466.31;10454129;28;20106;-69
2020/12/10 21:40:59;;;;;;;15.90;9.43;;;;;;;2.31;82.00;99460.22;10435538;28;20128;-69
2020/12/10 21:46:02;;;;;;;13.38;8.73;;;;;;;2.33;82.53;99458.44;10453318;28;20558;-69
2020/12/10 21:51:10;;;;;;;15.10;9.07;;;;;;;2.34;82.04;99448.91;10452793;28;20091;-69
2020/12/10 21:56:11;;;;;;;14.80;9.65;;;;;;;2.33;81.54;99426.59;10453152;28;20128;-69
2020/12/10 22:01:17;;;;;;;15.55;9.25;;;;;;;2.32;79.82;99409.44;10450830;28;20528;-69
2020/12/10 22:06:25;;;;;;;15.80;9.82;;;;;;;2.30;80.19;99412.06;10451785;28;20089;-68
2020/12/10 22:11:35;;;;;;;16.77;10.02;;;;;;;2.27;81.09;99399.28;10452301;28;20071;-69
2020/12/10 22:16:36;;;;;;;16.08;10.02;;;;;;;2.29;81.59;99407.78;10492042;28;20097;-68
2020/12/10 22:21:37;;;;;;;18.63;10.75;;;;;;;2.28;82.62;99407.84;10493002;28;20044;-67
2020/12/10 22:26:41;;;;;;;19.08;10.88;;;;;;;2.30;84.19;99404.31;10467561;28;20053;-67
2020/12/10 22:31:49;;;;;;;19.67;11.88;;;;;;;2.28;85.19;99405.28;10450232;28;20045;-68
2020/12/10 22:36:55;;;;;;;21.33;11.40;;;;;;;2.26;84.92;99397.56;10451544;28;20053;-68
2020/12/10 22:41:58;;;;;;;18.58;11.45;;;;;;;2.26;84.46;99400.16;10451277;28;20041;-68
2020/12/10 22:47:06;;;;;;;15.75;9.48;;;;;;;2.21;84.17;99396.91;10452100;28;20059;-68
2020/12/10 22:52:10;;;;;;;16.80;9.75;;;;;;;2.14;84.39;99400.59;10451055;28;20049;-67
2020/12/10 22:57:15;;;;;;;16.30;9.63;;;;;;;2.12;84.22;99392.94;10451511;28;20045;-68
2020/12/10 23:02:17;;;;;;;19.02;9.45;;;;;;;2.08;85.21;99395.69;10449341;28;20041;-68
2020/12/10 23:07:18;;;;;;;15.23;8.07;;;;;;;1.99;86.36;99399.41;10438598;28;20052;-68
2020/12/10 23:12:19;;;;;;;14.07;8.55;;;;;;;1.96;86.20;99393.53;10453595;28;20523;-68